sensor_id;sensor_type;location;lat;lon;timestamp;pressure;altitude;pressure_sealevel;temperature;humidity
70256;BME280;57669;52.624;-1.688;2023-03-01T00:00:01;102936.39;;;4.46;60.35
70256;BME280;57669;52.624;-1.688;2023-03-01T00:02:26;102937.01;;;4.83;59.27
70256;BME280;57669;52.624;-1.688;2023-03-01T00:04:51;102929.41;;;4.93;58.77
70256;BME280;57669;52.624;-1.688;2023-03-01T00:07:17;102931.64;;;5.20;58.09
70256;BME280;57669;52.624;-1.688;2023-03-01T00:09:42;102925.29;;;5.08;57.68
70256;BME280;57669;52.624;-1.688;2023-03-01T00:12:08;102928.03;;;5.02;57.31
70256;BME280;57669;52.624;-1.688;2023-03-01T00:14:34;102925.94;;;5.11;57.30
70256;BME280;57669;52.624;-1.688;2023-03-01T00:16:59;102926.21;;;5.13;57.50
70256;BME280;57669;52.624;-1.688;2023-03-01T00:19:24;102939.64;;;4.79;58.14
70256;BME280;57669;52.624;-1.688;2023-03-01T00:21:50;102934.48;;;5.01;58.05
70256;BME280;57669;52.624;-1.688;2023-03-01T00:24:15;102933.53;;;4.00;59.56
70256;BME280;57669;52.624;-1.688;2023-03-01T00:26:40;102932.03;;;3.97;59.93
70256;BME280;57669;52.624;-1.688;2023-03-01T00:29:05;102930.92;;;4.63;58.27
70256;BME280;57669;52.624;-1.688;2023-03-01T00:31:32;102929.40;;;4.57;58.47
70256;BME280;57669;52.624;-1.688;2023-03-01T00:33:58;102927.84;;;4.48;59.02
70256;BME280;57669;52.624;-1.688;2023-03-01T00:36:22;102931.19;;;4.31;59.57
70256;BME280;57669;52.624;-1.688;2023-03-01T00:38:47;102934.88;;;4.26;58.51
70256;BME280;57669;52.624;-1.688;2023-03-01T00:41:16;102938.73;;;4.80;57.29
70256;BME280;57669;52.624;-1.688;2023-03-01T00:43:38;102941.34;;;4.25;58.29
70256;BME280;57669;52.624;-1.688;2023-03-01T00:46:04;102938.79;;;4.19;59.27
70256;BME280;57669;52.624;-1.688;2023-03-01T00:48:29;102935.33;;;4.60;58.20
70256;BME280;57669;52.624;-1.688;2023-03-01T00:53:19;102928.86;;;4.20;59.62
70256;BME280;57669;52.624;-1.688;2023-03-01T00:55:45;102933.27;;;4.95;58.13
70256;BME280;57669;52.624;-1.688;2023-03-01T00:58:10;102932.85;;;4.22;59.78
70256;BME280;57669;52.624;-1.688;2023-03-01T01:00:35;102934.15;;;4.29;58.95
70256;BME280;57669;52.624;-1.688;2023-03-01T01:03:00;102931.34;;;4.65;58.25
70256;BME280;57669;52.624;-1.688;2023-03-01T01:05:25;102924.97;;;5.19;57.14
70256;BME280;57669;52.624;-1.688;2023-03-01T01:08:00;102930.09;;;5.19;56.79
70256;BME280;57669;52.624;-1.688;2023-03-01T01:10:15;102935.14;;;4.57;58.00
70256;BME280;57669;52.624;-1.688;2023-03-01T01:12:41;102931.22;;;4.68;58.95
70256;BME280;57669;52.624;-1.688;2023-03-01T01:15:07;102930.55;;;4.68;58.16
70256;BME280;57669;52.624;-1.688;2023-03-01T01:17:31;102921.26;;;5.06;57.38
70256;BME280;57669;52.624;-1.688;2023-03-01T01:19:56;102917.23;;;4.79;57.37
70256;BME280;57669;52.624;-1.688;2023-03-01T01:22:22;102914.18;;;5.24;56.21
70256;BME280;57669;52.624;-1.688;2023-03-01T01:24:47;102911.86;;;4.84;57.04
70256;BME280;57669;52.624;-1.688;2023-03-01T01:27:13;102913.61;;;4.97;58.18
70256;BME280;57669;52.624;-1.688;2023-03-01T01:29:38;102907.35;;;5.10;57.60
70256;BME280;57669;52.624;-1.688;2023-03-01T01:32:04;102910.42;;;4.56;58.98
70256;BME280;57669;52.624;-1.688;2023-03-01T01:34:28;102902.70;;;4.61;58.88
70256;BME280;57669;52.624;-1.688;2023-03-01T01:36:54;102907.25;;;4.48;60.80
70256;BME280;57669;52.624;-1.688;2023-03-01T01:39:19;102903.38;;;4.69;61.31
70256;BME280;57669;52.624;-1.688;2023-03-01T01:41:44;102896.60;;;4.66;61.07
70256;BME280;57669;52.624;-1.688;2023-03-01T01:44:13;102887.76;;;4.85;60.93
70256;BME280;57669;52.624;-1.688;2023-03-01T01:46:37;102884.38;;;4.74;60.83
70256;BME280;57669;52.624;-1.688;2023-03-01T01:49:03;102887.68;;;4.34;62.29
70256;BME280;57669;52.624;-1.688;2023-03-01T01:51:28;102879.06;;;3.51;64.86
70256;BME280;57669;52.624;-1.688;2023-03-01T01:53:54;102871.82;;;4.31;63.31
70256;BME280;57669;52.624;-1.688;2023-03-01T01:56:17;102866.96;;;4.42;62.84
70256;BME280;57669;52.624;-1.688;2023-03-01T01:58:42;102864.89;;;4.07;63.65
70256;BME280;57669;52.624;-1.688;2023-03-01T02:01:07;102867.26;;;3.94;64.18
70256;BME280;57669;52.624;-1.688;2023-03-01T02:03:34;102864.83;;;3.65;64.72
70256;BME280;57669;52.624;-1.688;2023-03-01T02:06:03;102865.62;;;3.48;65.06
70256;BME280;57669;52.624;-1.688;2023-03-01T02:08:25;102868.92;;;3.34;65.69
70256;BME280;57669;52.624;-1.688;2023-03-01T02:10:49;102863.41;;;3.47;65.15
70256;BME280;57669;52.624;-1.688;2023-03-01T02:13:12;102864.29;;;3.64;65.05
70256;BME280;57669;52.624;-1.688;2023-03-01T02:15:39;102859.22;;;3.68;64.10
70256;BME280;57669;52.624;-1.688;2023-03-01T02:18:04;102854.81;;;3.19;65.54
70256;BME280;57669;52.624;-1.688;2023-03-01T02:20:34;102855.65;;;3.23;65.65
70256;BME280;57669;52.624;-1.688;2023-03-01T02:22:53;102853.15;;;3.15;66.01
70256;BME280;57669;52.624;-1.688;2023-03-01T02:25:27;102849.31;;;3.51;64.98
70256;BME280;57669;52.624;-1.688;2023-03-01T02:27:51;102847.74;;;3.97;63.92
70256;BME280;57669;52.624;-1.688;2023-03-01T02:30:10;102850.20;;;3.53;64.89
70256;BME280;57669;52.624;-1.688;2023-03-01T02:32:34;102842.76;;;3.22;66.42
70256;BME280;57669;52.624;-1.688;2023-03-01T02:34:59;102840.65;;;4.06;64.70
70256;BME280;57669;52.624;-1.688;2023-03-01T02:37:24;102839.48;;;3.38;65.73
70256;BME280;57669;52.624;-1.688;2023-03-01T02:39:53;102837.50;;;3.84;64.72
70256;BME280;57669;52.624;-1.688;2023-03-01T02:42:17;102834.55;;;3.85;64.37
70256;BME280;57669;52.624;-1.688;2023-03-01T02:44:39;102831.20;;;3.98;64.22
70256;BME280;57669;52.624;-1.688;2023-03-01T02:47:05;102826.25;;;4.23;62.92
70256;BME280;57669;52.624;-1.688;2023-03-01T02:49:31;102825.01;;;4.26;62.66
70256;BME280;57669;52.624;-1.688;2023-03-01T02:52:04;102820.07;;;4.51;62.27
70256;BME280;57669;52.624;-1.688;2023-03-01T02:54:24;102814.61;;;4.28;62.46
70256;BME280;57669;52.624;-1.688;2023-03-01T02:56:45;102800.95;;;4.69;61.56
70256;BME280;57669;52.624;-1.688;2023-03-01T02:59:11;102800.13;;;4.65;61.03
70256;BME280;57669;52.624;-1.688;2023-03-01T03:01:35;102801.21;;;4.57;60.68
70256;BME280;57669;52.624;-1.688;2023-03-01T03:04:01;102799.40;;;4.98;59.65
70256;BME280;57669;52.624;-1.688;2023-03-01T03:06:26;102796.28;;;4.86;59.77
70256;BME280;57669;52.624;-1.688;2023-03-01T03:08:51;102793.87;;;5.63;58.17
70256;BME280;57669;52.624;-1.688;2023-03-01T03:11:16;102789.32;;;5.72;57.87
70256;BME280;57669;52.624;-1.688;2023-03-01T03:13:41;102784.48;;;4.84;59.62
70256;BME280;57669;52.624;-1.688;2023-03-01T03:16:06;102783.49;;;5.14;59.76
70256;BME280;57669;52.624;-1.688;2023-03-01T03:18:31;102781.29;;;5.00;60.43
70256;BME280;57669;52.624;-1.688;2023-03-01T03:20:57;102778.76;;;4.68;60.87
70256;BME280;57669;52.624;-1.688;2023-03-01T03:23:23;102779.20;;;4.82;60.75
70256;BME280;57669;52.624;-1.688;2023-03-01T03:25:49;102774.23;;;4.47;61.47
70256;BME280;57669;52.624;-1.688;2023-03-01T03:28:13;102777.16;;;4.49;61.80
70256;BME280;57669;52.624;-1.688;2023-03-01T03:30:40;102772.00;;;4.58;61.32
70256;BME280;57669;52.624;-1.688;2023-03-01T03:33:04;102770.85;;;4.37;61.66
70256;BME280;57669;52.624;-1.688;2023-03-01T03:35:31;102769.42;;;4.32;62.20
70256;BME280;57669;52.624;-1.688;2023-03-01T03:37:54;102764.10;;;4.45;61.48
70256;BME280;57669;52.624;-1.688;2023-03-01T03:40:19;102765.08;;;3.84;62.87
70256;BME280;57669;52.624;-1.688;2023-03-01T03:42:44;102764.55;;;4.05;62.87
70256;BME280;57669;52.624;-1.688;2023-03-01T03:45:09;102760.12;;;4.23;62.69
70256;BME280;57669;52.624;-1.688;2023-03-01T03:47:35;102758.47;;;3.98;63.59
70256;BME280;57669;52.624;-1.688;2023-03-01T03:50:00;102759.54;;;4.03;63.46
70256;BME280;57669;52.624;-1.688;2023-03-01T03:52:25;102758.93;;;4.02;62.73
70256;BME280;57669;52.624;-1.688;2023-03-01T03:54:50;102764.38;;;4.62;62.34
70256;BME280;57669;52.624;-1.688;2023-03-01T03:57:15;102761.62;;;4.26;62.47
70256;BME280;57669;52.624;-1.688;2023-03-01T03:59:40;102763.22;;;4.27;63.34
70256;BME280;57669;52.624;-1.688;2023-03-01T04:02:05;102765.39;;;3.68;63.41
70256;BME280;57669;52.624;-1.688;2023-03-01T04:04:31;102761.87;;;4.31;62.99
70256;BME280;57669;52.624;-1.688;2023-03-01T04:06:56;102759.88;;;3.93;62.83
70256;BME280;57669;52.624;-1.688;2023-03-01T04:09:21;102755.40;;;3.38;63.05
70256;BME280;57669;52.624;-1.688;2023-03-01T04:11:47;102759.16;;;3.11;63.76
70256;BME280;57669;52.624;-1.688;2023-03-01T04:14:12;102760.10;;;3.66;62.96
70256;BME280;57669;52.624;-1.688;2023-03-01T04:16:37;102751.83;;;4.11;62.19
70256;BME280;57669;52.624;-1.688;2023-03-01T04:19:02;102753.49;;;4.30;61.13
70256;BME280;57669;52.624;-1.688;2023-03-01T04:21:27;102756.30;;;4.21;61.57
70256;BME280;57669;52.624;-1.688;2023-03-01T04:23:52;102765.30;;;3.66;62.48
70256;BME280;57669;52.624;-1.688;2023-03-01T04:26:18;102759.48;;;4.14;61.85
70256;BME280;57669;52.624;-1.688;2023-03-01T04:28:43;102763.14;;;3.92;62.05
70256;BME280;57669;52.624;-1.688;2023-03-01T04:31:11;102753.29;;;4.07;61.20
70256;BME280;57669;52.624;-1.688;2023-03-01T04:33:34;102762.95;;;3.31;63.29
70256;BME280;57669;52.624;-1.688;2023-03-01T04:35:59;102756.31;;;3.31;63.95
70256;BME280;57669;52.624;-1.688;2023-03-01T04:38:24;102752.47;;;3.41;64.13
70256;BME280;57669;52.624;-1.688;2023-03-01T04:40:50;102753.25;;;3.45;62.76
70256;BME280;57669;52.624;-1.688;2023-03-01T04:43:15;102751.54;;;3.45;62.58
70256;BME280;57669;52.624;-1.688;2023-03-01T04:45:40;102750.93;;;3.85;62.56
70256;BME280;57669;52.624;-1.688;2023-03-01T04:48:06;102749.81;;;4.04;61.85
70256;BME280;57669;52.624;-1.688;2023-03-01T04:50:31;102744.12;;;3.88;61.65
70256;BME280;57669;52.624;-1.688;2023-03-01T04:52:56;102743.07;;;4.08;61.34
70256;BME280;57669;52.624;-1.688;2023-03-01T04:55:21;102747.28;;;4.24;61.44
70256;BME280;57669;52.624;-1.688;2023-03-01T04:57:46;102740.67;;;3.70;61.45
70256;BME280;57669;52.624;-1.688;2023-03-01T05:00:13;102742.11;;;3.93;61.09
70256;BME280;57669;52.624;-1.688;2023-03-01T05:02:36;102745.39;;;4.13;60.99
70256;BME280;57669;52.624;-1.688;2023-03-01T05:05:01;102751.96;;;3.80;61.91
70256;BME280;57669;52.624;-1.688;2023-03-01T05:07:26;102745.46;;;3.88;61.73
70256;BME280;57669;52.624;-1.688;2023-03-01T05:09:52;102749.77;;;4.14;61.46
70256;BME280;57669;52.624;-1.688;2023-03-01T05:12:17;102753.27;;;3.92;61.80
70256;BME280;57669;52.624;-1.688;2023-03-01T05:14:42;102753.58;;;3.54;63.40
70256;BME280;57669;52.624;-1.688;2023-03-01T05:17:07;102755.19;;;3.43;63.90
70256;BME280;57669;52.624;-1.688;2023-03-01T05:19:33;102756.43;;;3.59;62.83
70256;BME280;57669;52.624;-1.688;2023-03-01T05:21:57;102747.47;;;3.71;62.12
70256;BME280;57669;52.624;-1.688;2023-03-01T05:24:23;102742.30;;;3.94;61.34
70256;BME280;57669;52.624;-1.688;2023-03-01T05:26:48;102740.52;;;4.25;60.59
70256;BME280;57669;52.624;-1.688;2023-03-01T05:29:13;102737.45;;;4.46;60.37
70256;BME280;57669;52.624;-1.688;2023-03-01T05:31:38;102736.59;;;4.12;60.94
70256;BME280;57669;52.624;-1.688;2023-03-01T05:34:03;102733.64;;;3.83;61.79
70256;BME280;57669;52.624;-1.688;2023-03-01T05:36:28;102738.98;;;3.42;62.92
70256;BME280;57669;52.624;-1.688;2023-03-01T05:38:53;102730.87;;;3.82;62.58
70256;BME280;57669;52.624;-1.688;2023-03-01T05:41:18;102731.03;;;4.23;61.19
70256;BME280;57669;52.624;-1.688;2023-03-01T05:43:44;102728.44;;;4.48;60.98
70256;BME280;57669;52.624;-1.688;2023-03-01T05:46:09;102731.79;;;4.02;61.62
70256;BME280;57669;52.624;-1.688;2023-03-01T05:48:34;102734.15;;;4.09;62.27
70256;BME280;57669;52.624;-1.688;2023-03-01T05:51:02;102735.45;;;3.80;62.45
70256;BME280;57669;52.624;-1.688;2023-03-01T05:53:24;102731.92;;;4.16;61.65
70256;BME280;57669;52.624;-1.688;2023-03-01T05:55:50;102734.37;;;4.56;61.31
70256;BME280;57669;52.624;-1.688;2023-03-01T05:58:16;102734.99;;;4.18;62.30
70256;BME280;57669;52.624;-1.688;2023-03-01T06:00:41;102735.95;;;4.13;61.83
70256;BME280;57669;52.624;-1.688;2023-03-01T06:03:06;102735.87;;;4.65;60.49
70256;BME280;57669;52.624;-1.688;2023-03-01T06:05:31;102729.67;;;3.79;62.67
70256;BME280;57669;52.624;-1.688;2023-03-01T06:07:58;102726.72;;;4.03;62.63
70256;BME280;57669;52.624;-1.688;2023-03-01T06:10:22;102734.06;;;3.52;63.75
70256;BME280;57669;52.624;-1.688;2023-03-01T06:12:47;102728.97;;;3.45;64.21
70256;BME280;57669;52.624;-1.688;2023-03-01T06:15:14;102719.07;;;3.92;63.50
70256;BME280;57669;52.624;-1.688;2023-03-01T06:17:42;102721.59;;;4.34;62.27
70256;BME280;57669;52.624;-1.688;2023-03-01T06:20:04;102720.15;;;3.76;63.64
70256;BME280;57669;52.624;-1.688;2023-03-01T06:22:28;102724.29;;;3.52;63.96
70256;BME280;57669;52.624;-1.688;2023-03-01T06:24:54;102724.14;;;3.70;63.82
70256;BME280;57669;52.624;-1.688;2023-03-01T06:27:19;102724.13;;;4.09;63.09
70256;BME280;57669;52.624;-1.688;2023-03-01T06:29:45;102722.70;;;4.03;63.20
70256;BME280;57669;52.624;-1.688;2023-03-01T06:32:10;102720.23;;;4.06;63.34
70256;BME280;57669;52.624;-1.688;2023-03-01T06:34:35;102725.15;;;4.35;62.14
70256;BME280;57669;52.624;-1.688;2023-03-01T06:37:01;102723.81;;;4.15;61.76
70256;BME280;57669;52.624;-1.688;2023-03-01T06:39:27;102724.33;;;3.94;62.92
70256;BME280;57669;52.624;-1.688;2023-03-01T06:41:51;102736.14;;;3.29;64.51
70256;BME280;57669;52.624;-1.688;2023-03-01T06:44:17;102730.98;;;2.57;65.93
70256;BME280;57669;52.624;-1.688;2023-03-01T06:46:42;102730.60;;;3.63;64.19
70256;BME280;57669;52.624;-1.688;2023-03-01T06:49:08;102736.18;;;3.81;64.27
70256;BME280;57669;52.624;-1.688;2023-03-01T06:51:33;102731.47;;;3.87;63.67
70256;BME280;57669;52.624;-1.688;2023-03-01T06:53:59;102736.08;;;3.67;63.78
70256;BME280;57669;52.624;-1.688;2023-03-01T06:56:24;102737.05;;;4.14;64.03
70256;BME280;57669;52.624;-1.688;2023-03-01T06:58:50;102734.78;;;3.46;64.73
70256;BME280;57669;52.624;-1.688;2023-03-01T07:01:15;102733.35;;;3.59;64.06
70256;BME280;57669;52.624;-1.688;2023-03-01T07:03:41;102730.67;;;3.81;63.81
70256;BME280;57669;52.624;-1.688;2023-03-01T07:06:06;102735.25;;;3.12;64.80
70256;BME280;57669;52.624;-1.688;2023-03-01T07:08:31;102732.40;;;3.74;63.78
70256;BME280;57669;52.624;-1.688;2023-03-01T07:10:57;102732.87;;;4.03;63.05
70256;BME280;57669;52.624;-1.688;2023-03-01T07:13:22;102737.91;;;3.71;63.52
70256;BME280;57669;52.624;-1.688;2023-03-01T07:15:47;102739.14;;;4.13;62.74
70256;BME280;57669;52.624;-1.688;2023-03-01T07:18:13;102738.56;;;4.20;62.58
70256;BME280;57669;52.624;-1.688;2023-03-01T07:20:38;102738.47;;;3.86;62.89
70256;BME280;57669;52.624;-1.688;2023-03-01T07:23:05;102743.69;;;4.20;62.16
70256;BME280;57669;52.624;-1.688;2023-03-01T07:25:29;102746.77;;;4.43;61.15
70256;BME280;57669;52.624;-1.688;2023-03-01T07:27:54;102740.50;;;5.19;59.58
70256;BME280;57669;52.624;-1.688;2023-03-01T07:30:20;102749.57;;;4.79;59.69
70256;BME280;57669;52.624;-1.688;2023-03-01T07:32:44;102750.52;;;4.94;59.44
70256;BME280;57669;52.624;-1.688;2023-03-01T07:35:09;102750.38;;;4.56;60.04
70256;BME280;57669;52.624;-1.688;2023-03-01T07:37:35;102750.16;;;4.33;61.10
70256;BME280;57669;52.624;-1.688;2023-03-01T07:40:00;102748.85;;;4.49;61.02
70256;BME280;57669;52.624;-1.688;2023-03-01T07:42:25;102750.53;;;4.41;61.03
70256;BME280;57669;52.624;-1.688;2023-03-01T07:44:51;102758.27;;;3.60;62.80
70256;BME280;57669;52.624;-1.688;2023-03-01T07:47:17;102761.37;;;3.77;62.29
70256;BME280;57669;52.624;-1.688;2023-03-01T07:49:42;102755.89;;;3.80;62.66
70256;BME280;57669;52.624;-1.688;2023-03-01T07:52:10;102750.27;;;3.82;62.43
70256;BME280;57669;52.624;-1.688;2023-03-01T07:54:33;102740.23;;;4.19;60.98
70256;BME280;57669;52.624;-1.688;2023-03-01T07:56:57;102743.01;;;4.32;61.53
70256;BME280;57669;52.624;-1.688;2023-03-01T07:59:23;102742.77;;;4.14;61.05
70256;BME280;57669;52.624;-1.688;2023-03-01T08:01:49;102743.05;;;4.65;60.33
70256;BME280;57669;52.624;-1.688;2023-03-01T08:04:14;102744.32;;;4.89;59.50
70256;BME280;57669;52.624;-1.688;2023-03-01T08:06:40;102746.90;;;4.50;60.50
70256;BME280;57669;52.624;-1.688;2023-03-01T08:09:05;102747.60;;;4.35;60.35
70256;BME280;57669;52.624;-1.688;2023-03-01T08:11:31;102748.85;;;4.15;61.11
70256;BME280;57669;52.624;-1.688;2023-03-01T08:13:56;102751.33;;;4.43;60.59
70256;BME280;57669;52.624;-1.688;2023-03-01T08:16:21;102752.25;;;4.57;60.20
70256;BME280;57669;52.624;-1.688;2023-03-01T08:18:46;102753.91;;;4.63;60.14
70256;BME280;57669;52.624;-1.688;2023-03-01T08:21:14;102749.58;;;4.28;61.48
70256;BME280;57669;52.624;-1.688;2023-03-01T08:23:37;102756.43;;;4.67;60.14
70256;BME280;57669;52.624;-1.688;2023-03-01T08:26:05;102760.39;;;4.31;60.63
70256;BME280;57669;52.624;-1.688;2023-03-01T08:28:28;102758.12;;;4.25;61.96
70256;BME280;57669;52.624;-1.688;2023-03-01T08:30:53;102759.60;;;4.11;62.21
70256;BME280;57669;52.624;-1.688;2023-03-01T08:33:18;102764.75;;;4.55;61.83
70256;BME280;57669;52.624;-1.688;2023-03-01T08:35:43;102760.11;;;4.42;61.72
70256;BME280;57669;52.624;-1.688;2023-03-01T08:38:18;102761.13;;;4.17;62.22
70256;BME280;57669;52.624;-1.688;2023-03-01T08:42:58;102766.43;;;4.16;62.72
70256;BME280;57669;52.624;-1.688;2023-03-01T08:45:24;102767.66;;;4.54;62.20
70256;BME280;57669;52.624;-1.688;2023-03-01T08:47:52;102770.64;;;4.36;62.32
70256;BME280;57669;52.624;-1.688;2023-03-01T08:50:15;102770.47;;;4.31;61.96
70256;BME280;57669;52.624;-1.688;2023-03-01T08:52:39;102768.98;;;4.66;60.97
70256;BME280;57669;52.624;-1.688;2023-03-01T08:55:05;102773.89;;;4.98;60.13
70256;BME280;57669;52.624;-1.688;2023-03-01T08:57:29;102770.80;;;4.88;60.51
70256;BME280;57669;52.624;-1.688;2023-03-01T08:59:55;102770.71;;;5.01;60.08
70256;BME280;57669;52.624;-1.688;2023-03-01T09:02:21;102766.68;;;4.80;60.19
70256;BME280;57669;52.624;-1.688;2023-03-01T09:04:46;102771.23;;;4.44;61.19
70256;BME280;57669;52.624;-1.688;2023-03-01T09:07:11;102764.25;;;4.61;60.89
70256;BME280;57669;52.624;-1.688;2023-03-01T09:09:37;102760.08;;;5.26;60.22
70256;BME280;57669;52.624;-1.688;2023-03-01T09:12:02;102747.17;;;4.81;60.37
70256;BME280;57669;52.624;-1.688;2023-03-01T09:14:28;102741.37;;;5.23;59.55
70256;BME280;57669;52.624;-1.688;2023-03-01T09:16:53;102743.91;;;5.04;59.21
70256;BME280;57669;52.624;-1.688;2023-03-01T09:19:18;102737.88;;;5.07;59.57
70256;BME280;57669;52.624;-1.688;2023-03-01T09:21:43;102741.58;;;4.94;59.29
70256;BME280;57669;52.624;-1.688;2023-03-01T09:24:13;102742.78;;;5.31;58.71
70256;BME280;57669;52.624;-1.688;2023-03-01T09:26:34;102735.55;;;4.92;59.44
70256;BME280;57669;52.624;-1.688;2023-03-01T09:28:59;102732.70;;;5.06;59.39
70256;BME280;57669;52.624;-1.688;2023-03-01T09:31:24;102728.10;;;4.34;62.03
70256;BME280;57669;52.624;-1.688;2023-03-01T09:33:51;102725.01;;;4.96;60.39
70256;BME280;57669;52.624;-1.688;2023-03-01T09:38:39;102727.09;;;4.71;60.81
70256;BME280;57669;52.624;-1.688;2023-03-01T09:41:10;102728.59;;;4.40;61.60
70256;BME280;57669;52.624;-1.688;2023-03-01T09:43:35;102722.64;;;4.86;61.62
70256;BME280;57669;52.624;-1.688;2023-03-01T09:46:05;102713.34;;;4.55;61.63
70256;BME280;57669;52.624;-1.688;2023-03-01T09:48:23;102709.25;;;4.37;61.97
70256;BME280;57669;52.624;-1.688;2023-03-01T09:50:47;102707.54;;;4.69;61.60
70256;BME280;57669;52.624;-1.688;2023-03-01T09:53:15;102706.18;;;4.87;61.04
70256;BME280;57669;52.624;-1.688;2023-03-01T09:55:41;102698.65;;;4.52;63.47
70256;BME280;57669;52.624;-1.688;2023-03-01T10:00:35;102691.82;;;4.48;61.85
70256;BME280;57669;52.624;-1.688;2023-03-01T10:02:58;102688.52;;;4.47;62.20
70256;BME280;57669;52.624;-1.688;2023-03-01T10:05:29;102685.13;;;4.50;60.90
70256;BME280;57669;52.624;-1.688;2023-03-01T10:07:52;102682.50;;;4.42;61.94
70256;BME280;57669;52.624;-1.688;2023-03-01T10:10:18;102682.50;;;4.44;62.51
70256;BME280;57669;52.624;-1.688;2023-03-01T10:12:39;102675.89;;;4.05;63.71
70256;BME280;57669;52.624;-1.688;2023-03-01T10:15:04;102680.52;;;4.66;62.44
70256;BME280;57669;52.624;-1.688;2023-03-01T10:17:30;102674.99;;;4.50;62.31
70256;BME280;57669;52.624;-1.688;2023-03-01T10:19:50;102678.64;;;5.48;60.41
70256;BME280;57669;52.624;-1.688;2023-03-01T10:22:22;102675.62;;;5.06;60.10
70256;BME280;57669;52.624;-1.688;2023-03-01T10:24:42;102673.32;;;5.32;60.40
70256;BME280;57669;52.624;-1.688;2023-03-01T10:27:10;102673.81;;;5.08;61.50
70256;BME280;57669;52.624;-1.688;2023-03-01T10:29:38;102672.67;;;5.01;61.38
70256;BME280;57669;52.624;-1.688;2023-03-01T10:31:58;102668.32;;;5.24;60.86
70256;BME280;57669;52.624;-1.688;2023-03-01T10:34:29;102661.94;;;4.62;63.14
70256;BME280;57669;52.624;-1.688;2023-03-01T10:36:51;102662.52;;;4.39;62.32
70256;BME280;57669;52.624;-1.688;2023-03-01T10:39:17;102660.36;;;5.07;61.08
70256;BME280;57669;52.624;-1.688;2023-03-01T10:41:53;102653.86;;;5.68;59.80
70256;BME280;57669;52.624;-1.688;2023-03-01T10:44:12;102652.96;;;5.55;60.66
70256;BME280;57669;52.624;-1.688;2023-03-01T10:46:33;102657.66;;;5.20;60.51
70256;BME280;57669;52.624;-1.688;2023-03-01T10:49:05;102657.23;;;5.13;61.46
70256;BME280;57669;52.624;-1.688;2023-03-01T10:51:22;102654.68;;;5.23;61.04
70256;BME280;57669;52.624;-1.688;2023-03-01T10:53:49;102650.76;;;4.49;62.02
70256;BME280;57669;52.624;-1.688;2023-03-01T10:56:14;102647.00;;;4.77;62.22
70256;BME280;57669;52.624;-1.688;2023-03-01T10:58:39;102646.63;;;5.08;61.16
70256;BME280;57669;52.624;-1.688;2023-03-01T11:03:30;102644.10;;;4.76;61.82
70256;BME280;57669;52.624;-1.688;2023-03-01T11:05:57;102641.22;;;4.68;62.17
70256;BME280;57669;52.624;-1.688;2023-03-01T11:10:46;102639.55;;;4.80;62.33
70256;BME280;57669;52.624;-1.688;2023-03-01T11:13:15;102633.75;;;4.25;62.29
70256;BME280;57669;52.624;-1.688;2023-03-01T11:15:36;102636.87;;;4.95;61.86
70256;BME280;57669;52.624;-1.688;2023-03-01T11:18:02;102634.34;;;5.13;60.61
70256;BME280;57669;52.624;-1.688;2023-03-01T11:20:32;102624.31;;;5.86;58.47
70256;BME280;57669;52.624;-1.688;2023-03-01T11:22:54;102619.78;;;5.88;57.86
70256;BME280;57669;52.624;-1.688;2023-03-01T11:25:21;102617.95;;;6.27;56.75
70256;BME280;57669;52.624;-1.688;2023-03-01T11:27:45;102622.23;;;6.47;56.02
70256;BME280;57669;52.624;-1.688;2023-03-01T11:30:18;102610.32;;;6.80;54.84
70256;BME280;57669;52.624;-1.688;2023-03-01T11:32:40;102602.12;;;5.90;55.04
70256;BME280;57669;52.624;-1.688;2023-03-01T11:35:03;102606.31;;;6.03;55.56
70256;BME280;57669;52.624;-1.688;2023-03-01T11:37:33;102609.30;;;5.16;57.41
70256;BME280;57669;52.624;-1.688;2023-03-01T11:39:56;102612.04;;;5.34;57.40
70256;BME280;57669;52.624;-1.688;2023-03-01T11:42:19;102602.11;;;6.01;56.38
70256;BME280;57669;52.624;-1.688;2023-03-01T11:44:42;102598.75;;;5.42;56.40
70256;BME280;57669;52.624;-1.688;2023-03-01T11:47:16;102595.60;;;5.70;55.78
70256;BME280;57669;52.624;-1.688;2023-03-01T11:49:42;102587.72;;;5.42;56.17
70256;BME280;57669;52.624;-1.688;2023-03-01T11:52:04;102577.94;;;5.50;56.24
70256;BME280;57669;52.624;-1.688;2023-03-01T11:54:33;102579.10;;;5.81;56.99
70256;BME280;57669;52.624;-1.688;2023-03-01T11:56:52;102569.41;;;5.56;56.94
70256;BME280;57669;52.624;-1.688;2023-03-01T11:59:23;102563.47;;;5.29;56.47
70256;BME280;57669;52.624;-1.688;2023-03-01T12:01:50;102567.77;;;5.73;55.55
70256;BME280;57669;52.624;-1.688;2023-03-01T12:04:16;102579.60;;;5.89;55.97
70256;BME280;57669;52.624;-1.688;2023-03-01T12:06:41;102573.49;;;6.68;54.98
70256;BME280;57669;52.624;-1.688;2023-03-01T12:09:06;102573.11;;;5.85;55.68
70256;BME280;57669;52.624;-1.688;2023-03-01T12:11:32;102576.19;;;5.88;55.86
70256;BME280;57669;52.624;-1.688;2023-03-01T12:14:03;102565.87;;;5.93;55.12
70256;BME280;57669;52.624;-1.688;2023-03-01T12:16:27;102557.56;;;5.37;57.17
70256;BME280;57669;52.624;-1.688;2023-03-01T12:18:49;102561.17;;;4.97;58.49
70256;BME280;57669;52.624;-1.688;2023-03-01T12:21:14;102561.06;;;5.20;57.39
70256;BME280;57669;52.624;-1.688;2023-03-01T12:23:44;102561.92;;;5.31;57.59
70256;BME280;57669;52.624;-1.688;2023-03-01T12:25:59;102561.59;;;5.94;56.16
70256;BME280;57669;52.624;-1.688;2023-03-01T12:28:41;102558.00;;;6.69;55.42
70256;BME280;57669;52.624;-1.688;2023-03-01T12:31:00;102549.11;;;6.14;55.35
70256;BME280;57669;52.624;-1.688;2023-03-01T12:33:21;102545.19;;;6.00;56.24
70256;BME280;57669;52.624;-1.688;2023-03-01T12:35:52;102534.89;;;6.03;54.92
70256;BME280;57669;52.624;-1.688;2023-03-01T12:38:13;102535.48;;;5.77;55.32
70256;BME280;57669;52.624;-1.688;2023-03-01T12:40:42;102523.67;;;5.72;55.69
70256;BME280;57669;52.624;-1.688;2023-03-01T12:43:06;102519.20;;;5.93;55.23
70256;BME280;57669;52.624;-1.688;2023-03-01T12:45:34;102523.05;;;5.88;55.38
70256;BME280;57669;52.624;-1.688;2023-03-01T12:47:58;102514.73;;;6.20;54.66
70256;BME280;57669;52.624;-1.688;2023-03-01T12:50:17;102511.76;;;5.85;55.32
70256;BME280;57669;52.624;-1.688;2023-03-01T12:52:41;102510.14;;;5.77;54.92